createdAt,value
2022-11-01T00:26:51.745Z,98519.63
2022-11-01T00:29:18.766Z,98515.75
2022-11-01T00:31:45.638Z,98520.59
2022-11-01T00:34:12.402Z,98514.00
2022-11-01T00:36:39.393Z,98516.72
2022-11-01T00:39:07.490Z,98523.09
2022-11-01T00:41:35.220Z,98525.44
2022-11-01T00:44:02.046Z,98521.34
2022-11-01T00:46:31.482Z,98525.94
2022-11-01T00:48:58.276Z,98520.97
2022-11-01T00:51:26.281Z,98523.84
2022-11-01T00:53:53.094Z,98521.22
2022-11-01T00:56:19.862Z,98525.84
2022-11-01T00:58:46.646Z,98528.91
2022-11-01T01:01:13.696Z,98521.69
2022-11-01T01:03:40.700Z,98522.06
2022-11-01T01:06:07.682Z,98516.97
2022-11-01T01:08:34.551Z,98524.16
2022-11-01T01:11:01.272Z,98514.44
2022-11-01T01:13:28.091Z,98515.38
2022-11-01T01:15:54.822Z,98523.88
2022-11-01T01:18:21.958Z,98519.47
2022-11-01T01:20:48.911Z,98509.56
2022-11-01T01:23:15.670Z,98524.19
2022-11-01T01:25:43.166Z,98517.44
2022-11-01T01:28:10.117Z,98524.75
2022-11-01T01:30:41.429Z,98515.78
2022-11-01T01:33:09.607Z,98511.75
2022-11-01T01:35:39.134Z,98521.88
2022-11-01T01:38:07.314Z,98515.19
2022-11-01T01:40:35.205Z,98523.34
2022-11-01T01:43:02.362Z,98516.84
2022-11-01T01:45:39.636Z,98520.75
2022-11-01T01:48:27.501Z,98525.56
2022-11-01T01:51:00.098Z,98522.41
2022-11-01T01:53:42.211Z,98526.31
2022-11-01T01:56:21.527Z,98527.97
2022-11-01T01:59:02.965Z,98535.88
2022-11-01T02:01:30.305Z,98533.28
2022-11-01T02:03:57.692Z,98539.06
2022-11-01T02:06:26.114Z,98544.63
2022-11-01T02:08:56.881Z,98547.13
2022-11-01T02:11:24.063Z,98544.06
2022-11-01T02:13:51.845Z,98539.56
2022-11-01T02:16:54.690Z,98548.72
2022-11-01T02:20:07.709Z,98558.09
2022-11-01T02:23:18.702Z,98558.00
2022-11-01T02:26:02.133Z,98567.22
2022-11-01T02:28:44.367Z,98559.09
2022-11-01T02:31:47.771Z,98575.38
2022-11-01T02:34:24.165Z,98577.09
2022-11-01T02:37:12.796Z,98577.81
2022-11-01T02:39:47.553Z,98591.06
2022-11-01T02:42:37.096Z,98584.00
2022-11-01T02:45:43.013Z,98592.28
2022-11-01T02:48:09.975Z,98595.59
2022-11-01T02:50:42.762Z,98595.59
2022-11-01T02:53:10.441Z,98599.13
2022-11-01T02:55:37.270Z,98599.22
2022-11-01T02:58:25.860Z,98600.44
2022-11-01T03:00:52.798Z,98605.25
2022-11-01T03:03:34.428Z,98605.50
2022-11-01T03:06:01.234Z,98605.25
2022-11-01T03:08:35.788Z,98612.78
2022-11-01T03:11:21.787Z,98626.97
2022-11-01T03:14:17.910Z,98631.16
2022-11-01T03:17:28.222Z,98632.03
2022-11-01T03:20:07.530Z,98631.56
2022-11-01T03:22:53.875Z,98637.06
2022-11-01T03:25:40.773Z,98651.25
2022-11-01T03:28:09.320Z,98662.56
2022-11-01T03:30:37.790Z,98668.81
2022-11-01T03:33:05.592Z,98678.03
2022-11-01T03:35:37.192Z,98686.94
2022-11-01T03:38:21.336Z,98697.56
2022-11-01T03:40:55.482Z,98696.28
2022-11-01T03:43:24.522Z,98706.91
2022-11-01T03:45:51.615Z,98728.69
2022-11-01T03:48:18.437Z,98724.56
2022-11-01T03:50:56.481Z,98748.00
2022-11-01T03:53:24.638Z,98740.25
2022-11-01T03:55:51.510Z,98756.84
2022-11-01T03:58:18.577Z,98769.94
2022-11-01T04:00:47.254Z,98772.03
2022-11-01T04:03:14.375Z,98785.69
2022-11-01T04:05:42.797Z,98788.03
2022-11-01T04:08:11.650Z,98789.50
2022-11-01T04:10:38.782Z,98797.94
2022-11-01T04:13:06.027Z,98804.59
2022-11-01T04:15:51.651Z,98808.41
2022-11-01T04:18:41.863Z,98824.91
2022-11-01T04:21:13.654Z,98842.69
2022-11-01T04:23:40.629Z,98862.56
2022-11-01T04:26:11.735Z,98875.09
2022-11-01T04:28:38.627Z,98877.41
2022-11-01T04:31:06.444Z,98889.97
2022-11-01T04:33:33.286Z,98891.66
2022-11-01T04:36:06.552Z,98901.94
2022-11-01T04:38:33.324Z,98928.03
2022-11-01T04:41:00.159Z,98925.59
2022-11-01T04:43:27.137Z,98947.69
2022-11-01T04:45:56.212Z,98949.19
2022-11-01T04:48:23.851Z,98954.03
2022-11-01T04:50:50.892Z,98968.66
2022-11-01T04:53:17.821Z,98964.47
2022-11-01T04:55:44.964Z,98968.31
2022-11-01T04:58:12.098Z,98975.81
2022-11-01T05:00:39.524Z,98973.31
2022-11-01T05:03:08.399Z,99002.03
2022-11-01T05:05:35.943Z,99007.47
2022-11-01T05:08:09.972Z,99022.25
2022-11-01T05:10:40.841Z,99029.13
2022-11-01T05:13:08.914Z,99026.63
2022-11-01T05:15:40.068Z,99029.56
2022-11-01T05:18:14.814Z,99036.03
2022-11-01T05:20:41.566Z,99050.38
2022-11-01T05:23:09.912Z,99067.03
2022-11-01T05:25:38.271Z,99055.78
2022-11-01T05:28:13.075Z,99052.03
2022-11-01T05:30:40.823Z,99058.06
2022-11-01T05:33:08.670Z,99059.53
2022-11-01T05:35:36.482Z,99061.19
2022-11-01T05:38:05.378Z,99072.88
2022-11-01T05:40:33.290Z,99073.50
2022-11-01T05:43:00.481Z,99069.31
2022-11-01T05:45:27.829Z,99071.84
2022-11-01T05:47:54.625Z,99068.28
2022-11-01T05:50:21.429Z,99062.22
2022-11-01T05:52:50.095Z,99065.38
2022-11-01T05:55:17.241Z,99065.38
2022-11-01T05:57:44.113Z,99064.09
2022-11-01T06:00:12.169Z,99056.22
2022-11-01T06:02:39.118Z,99054.97
2022-11-01T06:05:06.330Z,99056.22
2022-11-01T06:07:37.622Z,99054.34
2022-11-01T06:10:05.881Z,99068.50
2022-11-01T06:12:33.035Z,99072.84
2022-11-01T06:14:59.840Z,99077.44
2022-11-01T06:17:26.671Z,99072.44
2022-11-01T06:19:53.513Z,99077.41
2022-11-01T06:22:20.349Z,99085.13
2022-11-01T06:24:47.115Z,99084.09
2022-11-01T06:27:13.881Z,99085.13
2022-11-01T06:29:40.695Z,99083.47
2022-11-01T06:32:07.610Z,99081.38
2022-11-01T06:34:34.527Z,99072.03
2022-11-01T06:37:01.514Z,99073.91
2022-11-01T06:39:29.046Z,99065.38
2022-11-01T06:41:55.822Z,99066.00
2022-11-01T06:44:23.018Z,99069.34
2022-11-01T06:46:50.218Z,99074.53
2022-11-01T06:49:19.093Z,99080.78
2022-11-01T06:51:47.335Z,99070.38
2022-11-01T06:54:14.578Z,99069.13
2022-11-01T06:56:41.339Z,99060.16
2022-11-01T06:59:08.809Z,99067.25
2022-11-01T07:01:36.027Z,99069.94
2022-11-01T07:04:02.959Z,99079.31
2022-11-01T07:06:31.164Z,99076.22
2022-11-01T07:09:01.641Z,99072.03
2022-11-01T07:11:31.495Z,99069.94
2022-11-01T07:13:59.607Z,99078.94
2022-11-01T07:16:27.204Z,99079.75
2022-11-01T07:18:54.034Z,99078.09
2022-11-01T07:21:21.708Z,99079.53
2022-11-01T07:23:48.940Z,99079.53
2022-11-01T07:26:15.829Z,99079.53
2022-11-01T07:28:42.593Z,99073.47
2022-11-01T07:31:09.458Z,99078.06
2022-11-01T07:33:36.584Z,99085.34
2022-11-01T07:36:04.736Z,99078.69
2022-11-01T07:38:31.884Z,99079.91
2022-11-01T07:40:58.906Z,99088.66
2022-11-01T07:43:25.705Z,99082.84
2022-11-01T07:45:52.597Z,99078.66
2022-11-01T07:48:19.946Z,99089.91
2022-11-01T07:50:47.044Z,99094.91
2022-11-01T07:53:19.371Z,99095.31
2022-11-01T07:55:47.095Z,99095.31
2022-11-01T07:58:15.777Z,99115.31
2022-11-01T08:00:44.228Z,99103.66
2022-11-01T08:03:17.252Z,99113.44
2022-11-01T08:05:45.784Z,99112.00
2022-11-01T08:08:14.690Z,99112.63
2022-11-01T08:10:45.393Z,99118.00
2022-11-01T08:13:18.413Z,99125.53
2022-11-01T08:15:46.220Z,99124.00
2022-11-01T08:18:13.487Z,99129.63
2022-11-01T08:20:41.290Z,99130.84
2022-11-01T08:23:09.313Z,99135.00
2022-11-01T08:25:37.001Z,99135.19
2022-11-01T08:28:17.106Z,99130.78
2022-11-01T08:30:46.010Z,99139.75
2022-11-01T08:33:12.921Z,99135.56
2022-11-01T08:35:40.345Z,99148.31
2022-11-01T08:38:09.705Z,99146.41
2022-11-01T08:40:36.515Z,99156.56
2022-11-01T08:43:03.602Z,99156.97
2022-11-01T08:45:30.707Z,99162.16
2022-11-01T08:48:03.809Z,99162.56
2022-11-01T08:50:34.023Z,99170.50
2022-11-01T08:53:09.461Z,99173.00
2022-11-01T08:55:38.195Z,99181.38
2022-11-01T08:58:06.910Z,99182.84
2022-11-01T09:00:35.300Z,99196.41
2022-11-01T09:03:02.183Z,99194.31
2022-11-01T09:05:31.578Z,99207.22
2022-11-01T09:08:02.067Z,99204.91
2022-11-01T09:10:31.165Z,99216.38
2022-11-01T09:13:02.268Z,99230.56
2022-11-01T09:15:29.770Z,99228.91
2022-11-01T09:17:56.694Z,99221.34
2022-11-01T09:20:24.275Z,99228.19
2022-11-01T09:22:52.660Z,99233.97
2022-11-01T09:25:19.695Z,99236.41
2022-11-01T09:27:46.482Z,99235.78
2022-11-01T09:30:13.965Z,99249.78
2022-11-01T09:32:40.740Z,99242.84
2022-11-01T09:35:09.323Z,99241.56
2022-11-01T09:37:36.197Z,99253.91
2022-11-01T09:40:03.793Z,99244.50
2022-11-01T09:42:36.104Z,99245.34
2022-11-01T09:45:13.157Z,99261.66
2022-11-01T09:47:41.700Z,99258.03
2022-11-01T09:50:24.320Z,99257.84
2022-11-01T09:52:53.514Z,99258.44
2022-11-01T09:55:37.423Z,99265.78
2022-11-01T09:58:34.510Z,99268.00
2022-11-01T10:01:27.454Z,99277.81
2022-11-01T10:04:20.208Z,99280.09
2022-11-01T10:07:09.983Z,99281.50
2022-11-01T10:10:18.653Z,99286.94
2022-11-01T10:13:00.364Z,99289.53
2022-11-01T10:15:52.722Z,99293.88
2022-11-01T10:18:31.086Z,99300.44
2022-11-01T10:21:21.621Z,99305.94
2022-11-01T10:23:53.177Z,99312.19
2022-11-01T10:26:30.264Z,99298.00
2022-11-01T10:29:07.399Z,99291.31
2022-11-01T10:31:43.130Z,99300.53
2022-11-01T10:34:31.979Z,99292.56
2022-11-01T10:37:39.009Z,99300.72
2022-11-01T10:40:28.341Z,99301.41
2022-11-01T10:42:55.462Z,99308.53
2022-11-01T10:45:23.362Z,99313.97
2022-11-01T10:47:57.083Z,99314.44
2022-11-01T10:50:30.565Z,99329.47
2022-11-01T10:53:03.465Z,99331.56
2022-11-01T10:55:45.661Z,99322.41
2022-11-01T10:58:41.960Z,99322.44
2022-11-01T11:01:16.049Z,99320.78
2022-11-01T11:03:46.210Z,99325.38
2022-11-01T11:06:17.579Z,99337.06
2022-11-01T11:08:51.754Z,99352.13
2022-11-01T11:11:31.559Z,99333.31
2022-11-01T11:14:00.491Z,99348.78
2022-11-01T11:16:33.773Z,99350.03
2022-11-01T11:19:26.992Z,99351.66
2022-11-01T11:21:54.458Z,99354.19
2022-11-01T11:24:34.899Z,99352.31
2022-11-01T11:27:04.114Z,99344.59
2022-11-01T11:29:49.461Z,99345.41
2022-11-01T11:32:24.994Z,99338.28
2022-11-01T11:35:18.386Z,99331.22
2022-11-01T11:38:07.293Z,99332.44
2022-11-01T11:40:43.047Z,99331.16
2022-11-01T11:43:30.438Z,99326.41
2022-11-01T11:46:21.750Z,99327.00
2022-11-01T11:49:07.432Z,99336.59
2022-11-01T11:51:38.471Z,99335.31
2022-11-01T11:54:25.487Z,99331.53
2022-11-01T11:57:11.757Z,99318.75
2022-11-01T11:59:40.632Z,99320.22
2022-11-01T12:02:27.683Z,99308.94
2022-11-01T12:05:02.113Z,99317.66
2022-11-01T12:07:44.847Z,99314.72
2022-11-01T12:10:34.211Z,99318.03
2022-11-01T12:13:03.453Z,99324.91
2022-11-01T12:15:41.265Z,99317.75
2022-11-01T12:18:19.370Z,99314.63
2022-11-01T12:20:52.013Z,99318.44
2022-11-01T12:23:40.682Z,99316.13
2022-11-01T12:26:14.057Z,99310.03
2022-11-01T12:28:51.313Z,99316.75
2022-11-01T12:31:20.800Z,99318.84
2022-11-01T12:34:03.526Z,99315.13
2022-11-01T12:36:46.529Z,99299.25
2022-11-01T12:39:37.983Z,99296.75
2022-11-01T12:42:05.362Z,99300.16
2022-11-01T12:44:40.560Z,99294.75
2022-11-01T12:47:45.814Z,99300.59
2022-11-01T12:50:29.085Z,99300.59
2022-11-01T12:53:16.080Z,99294.34
2022-11-01T12:55:43.739Z,99296.84
2022-11-01T12:58:16.364Z,99289.53
2022-11-01T13:01:23.146Z,99294.34
2022-11-01T13:04:30.356Z,99295.41
2022-11-01T13:07:06.729Z,99300.63
2022-11-01T13:09:57.809Z,99297.34
2022-11-01T13:13:08.103Z,99304.81
2022-11-01T13:15:54.867Z,99297.69
2022-11-01T13:18:42.070Z,99290.59
2022-11-01T13:21:37.182Z,99313.78
2022-11-01T13:24:50.519Z,99306.28
2022-11-01T13:27:33.029Z,99305.69
2022-11-01T13:30:13.601Z,99314.44
2022-11-01T13:32:51.500Z,99315.28
2022-11-01T13:35:48.606Z,99303.78
2022-11-01T13:38:42.290Z,99316.41
2022-11-01T13:41:37.496Z,99315.13
2022-11-01T13:44:18.355Z,99300.28
2022-11-01T13:46:57.495Z,99304.41
2022-11-01T13:50:01.871Z,99295.66
2022-11-01T13:52:33.995Z,99306.34
2022-11-01T13:55:14.210Z,99291.97
2022-11-01T13:57:45.003Z,99292.38
2022-11-01T14:00:41.108Z,99292.81
2022-11-01T14:03:30.960Z,99296.78
2022-11-01T14:09:27.955Z,99285.72
2022-11-01T14:11:58.786Z,99284.47
2022-11-01T14:14:31.597Z,99296.84
2022-11-01T14:17:19.620Z,99299.34
2022-11-01T14:20:15.369Z,99302.47
2022-11-01T14:22:45.021Z,99319.63
2022-11-01T14:25:14.127Z,99316.28
2022-11-01T14:27:50.344Z,99333.44
2022-11-01T14:30:25.158Z,99322.59
2022-11-01T14:33:01.153Z,99318.00
2022-11-01T14:35:38.013Z,99313.22
2022-11-01T14:38:15.716Z,99323.41
2022-11-01T14:40:51.565Z,99326.75
2022-11-01T14:43:25.904Z,99315.06
2022-11-01T14:46:04.275Z,99320.09
2022-11-01T14:48:46.535Z,99299.66
2022-11-01T14:51:37.404Z,99281.31
2022-11-01T14:54:23.663Z,99288.16
2022-11-01T14:56:54.279Z,99302.16
2022-11-01T14:59:27.650Z,99295.88
2022-11-01T15:02:02.781Z,99298.19
2022-11-01T15:04:39.229Z,99303.19
2022-11-01T15:07:19.390Z,99291.31
2022-11-01T15:10:07.158Z,99290.88
2022-11-01T15:12:47.457Z,99281.28
2022-11-01T15:15:24.066Z,99294.22
2022-11-01T15:17:58.046Z,99289.22
2022-11-01T15:20:36.089Z,99291.72
2022-11-01T15:23:10.647Z,99281.28
2022-11-01T15:25:40.819Z,99289.44
2022-11-01T15:28:07.742Z,99277.13
2022-11-01T15:30:34.979Z,99279.22
2022-11-01T15:33:32.747Z,99275.88
2022-11-01T15:36:23.391Z,99284.41
2022-11-01T15:38:58.983Z,99281.91
2022-11-01T15:41:30.226Z,99277.31
2022-11-01T15:44:01.122Z,99274.59
2022-11-01T15:46:33.623Z,99280.41
2022-11-01T15:49:09.025Z,99277.72
2022-11-01T15:51:42.190Z,99278.34
2022-11-01T15:54:48.284Z,99274.16
2022-11-01T15:57:26.432Z,99275.00
2022-11-01T16:00:08.113Z,99288.53
2022-11-01T16:02:58.594Z,99296.03
2022-11-01T16:05:34.419Z,99302.09
2022-11-01T16:08:01.473Z,99294.59
2022-11-01T16:10:30.466Z,99290.63
2022-11-01T16:12:59.852Z,99291.25
2022-11-01T16:15:31.641Z,99298.31
2022-11-01T16:18:00.302Z,99297.50
2022-11-01T16:20:38.252Z,99304.31
2022-11-01T16:23:07.762Z,99298.66
2022-11-01T16:25:37.778Z,99314.84
2022-11-01T16:28:10.512Z,99301.06
2022-11-01T16:30:54.992Z,99307.75
2022-11-01T16:33:35.829Z,99306.91
2022-11-01T16:36:26.825Z,99304.59
2022-11-01T16:38:54.664Z,99304.59
2022-11-01T16:41:24.364Z,99302.94
2022-11-01T16:43:58.198Z,99307.94
2022-11-01T16:46:29.405Z,99310.66
2022-11-01T16:48:58.616Z,99302.28
2022-11-01T16:51:30.594Z,99303.97
2022-11-01T16:54:03.190Z,99305.22
2022-11-01T16:56:37.072Z,99296.47
2022-11-01T16:59:35.801Z,99298.34
2022-11-01T17:02:16.693Z,99301.25
2022-11-01T17:04:46.416Z,99303.72
2022-11-01T17:07:13.403Z,99298.31
2022-11-01T17:09:40.198Z,99305.56
2022-11-01T17:12:08.270Z,99298.44
2022-11-01T17:14:37.657Z,99304.91
2022-11-01T17:17:09.950Z,99312.19
2022-11-01T17:19:41.481Z,99308.63
2022-11-01T17:22:16.443Z,99308.44
2022-11-01T17:24:43.168Z,99304.84
2022-11-01T17:27:10.277Z,99310.88
2022-11-01T17:29:37.239Z,99325.22
2022-11-01T17:32:09.027Z,99317.94
2022-11-01T17:34:37.180Z,99316.66
2022-11-01T17:37:04.659Z,99327.91
2022-11-01T17:39:32.205Z,99324.34
2022-11-01T17:41:59.498Z,99331.91
2022-11-01T17:44:26.329Z,99338.31
2022-11-01T17:46:53.338Z,99331.44
2022-11-01T17:49:23.732Z,99339.56
2022-11-01T17:51:54.729Z,99333.09
2022-11-01T17:54:23.223Z,99337.44
2022-11-01T17:56:51.434Z,99336.16
2022-11-01T17:59:18.782Z,99340.75
2022-11-01T18:01:45.683Z,99344.88
2022-11-01T18:04:12.538Z,99350.88
2022-11-01T18:06:40.887Z,99355.44
2022-11-01T18:09:25.593Z,99358.31
2022-11-01T18:12:07.711Z,99351.84
2022-11-01T18:14:57.218Z,99352.28
2022-11-01T18:17:46.656Z,99359.28
2022-11-01T18:20:46.304Z,99361.56
2022-11-01T18:23:18.510Z,99356.72
2022-11-01T18:25:50.556Z,99371.28
2022-11-01T18:28:28.024Z,99358.72
2022-11-01T18:31:41.449Z,99356.38
2022-11-01T18:34:25.344Z,99369.41
2022-11-01T18:37:09.989Z,99369.41
2022-11-01T18:39:42.618Z,99369.41
2022-11-01T18:42:10.742Z,99365.13
2022-11-01T18:44:40.530Z,99366.31
2022-11-01T18:47:16.819Z,99380.88
2022-11-01T18:49:43.729Z,99363.88
2022-11-01T18:52:15.344Z,99359.44
2022-11-01T18:54:56.531Z,99356.94
2022-11-01T18:57:24.905Z,99346.06
2022-11-01T18:59:53.611Z,99348.13
2022-11-01T19:02:28.217Z,99354.75
2022-11-01T19:05:18.279Z,99360.56
2022-11-01T19:08:10.068Z,99359.69
2022-11-01T19:10:38.580Z,99359.50
2022-11-01T19:13:13.075Z,99367.41
2022-11-01T19:15:40.023Z,99380.56
2022-11-01T19:18:20.530Z,99371.78
2022-11-01T19:20:53.395Z,99366.59
2022-11-01T19:23:41.080Z,99372.63
2022-11-01T19:26:26.219Z,99374.25
2022-11-01T19:28:53.388Z,99369.28
2022-11-01T19:31:39.057Z,99374.28
2022-11-01T19:34:16.547Z,99369.47
2022-11-01T19:36:44.614Z,99383.19
2022-11-01T19:39:23.697Z,99382.25
2022-11-01T19:42:00.222Z,99381.16
2022-11-01T19:44:28.996Z,99386.56
2022-11-01T19:47:32.485Z,99388.63
2022-11-01T19:49:59.363Z,99381.56
2022-11-01T19:52:35.779Z,99385.47
2022-11-01T19:55:21.389Z,99393.09
2022-11-01T19:57:48.200Z,99391.50
2022-11-01T20:00:19.282Z,99388.44
2022-11-01T20:02:48.336Z,99389.25
2022-11-01T20:05:33.195Z,99393.56
2022-11-01T20:08:19.913Z,99387.78
2022-11-01T20:10:46.904Z,99382.38
2022-11-01T20:13:14.070Z,99386.09
2022-11-01T20:15:40.847Z,99390.22
2022-11-01T20:18:08.118Z,99388.56
2022-11-01T20:20:35.433Z,99389.31
2022-11-01T20:23:24.756Z,99392.41
2022-11-01T20:25:48.920Z,99402.91
2022-11-01T20:28:16.055Z,99402.44
2022-11-01T20:30:42.786Z,99402.63
2022-11-01T20:33:09.666Z,99400.38
2022-11-01T20:35:36.729Z,99404.31
2022-11-01T20:38:03.539Z,99421.78
2022-11-01T20:40:30.303Z,99412.88
2022-11-01T20:42:57.205Z,99418.44
2022-11-01T20:45:23.984Z,99424.50
2022-11-01T20:47:51.485Z,99426.09
2022-11-01T20:50:19.204Z,99436.88
2022-11-01T20:52:46.062Z,99435.66
2022-11-01T20:55:13.483Z,99451.69
2022-11-01T20:57:40.328Z,99453.25
2022-11-01T21:00:18.949Z,99454.94
2022-11-01T21:02:47.334Z,99450.47
2022-11-01T21:05:25.318Z,99457.91
2022-11-01T21:08:00.113Z,99467.34
2022-11-01T21:10:36.833Z,99459.59
2022-11-01T21:13:21.695Z,99466.28
2022-11-01T21:15:49.338Z,99470.72
2022-11-01T21:18:16.021Z,99479.91
2022-11-01T21:20:46.970Z,99481.56
2022-11-01T21:23:34.814Z,99485.00
2022-11-01T21:26:17.718Z,99485.41
2022-11-01T21:28:53.493Z,99493.28
2022-11-01T21:31:34.143Z,99499.09
2022-11-01T21:34:10.312Z,99502.25
2022-11-01T21:36:53.605Z,99510.34
2022-11-01T21:39:27.316Z,99510.41
2022-11-01T21:42:01.760Z,99506.59
2022-11-01T21:44:45.581Z,99504.94
2022-11-01T21:47:43.175Z,99511.38
2022-11-01T21:50:12.353Z,99512.41
2022-11-01T21:52:39.101Z,99522.72
2022-11-01T21:55:06.321Z,99528.47
2022-11-01T21:57:33.058Z,99525.69
2022-11-01T21:59:59.814Z,99534.66
2022-11-01T22:02:26.682Z,99538.66
2022-11-01T22:04:55.409Z,99548.31
2022-11-01T22:07:22.423Z,99561.34
2022-11-01T22:09:49.180Z,99567.22
2022-11-01T22:12:15.955Z,99558.75
2022-11-01T22:14:42.748Z,99577.53
2022-11-01T22:17:09.563Z,99581.38
2022-11-01T22:19:36.381Z,99585.47
2022-11-01T22:22:03.145Z,99587.78
2022-11-01T22:24:30.189Z,99594.22
2022-11-01T22:26:57.144Z,99593.19
2022-11-01T22:29:23.978Z,99601.09
2022-11-01T22:31:50.808Z,99599.72
2022-11-01T22:34:17.577Z,99605.50
2022-11-01T22:36:44.301Z,99609.19
2022-11-01T22:39:30.206Z,99616.28
2022-11-01T22:41:57.015Z,99617.00
2022-11-01T22:44:30.522Z,99616.56
2022-11-01T22:47:00.546Z,99619.06
2022-11-01T22:49:34.905Z,99630.59
2022-11-01T22:52:17.215Z,99630.09
2022-11-01T22:54:48.171Z,99638.38
2022-11-01T22:57:24.471Z,99641.16
2022-11-01T22:59:53.235Z,99660.03
2022-11-01T23:02:39.250Z,99665.19
2022-11-01T23:05:06.085Z,99670.06
2022-11-01T23:07:57.798Z,99668.38
2022-11-01T23:10:34.613Z,99683.84
2022-11-01T23:13:21.780Z,99680.78
2022-11-01T23:15:48.658Z,99696.91
2022-11-01T23:18:27.847Z,99704.84
2022-11-01T23:21:06.853Z,99719.81
2022-11-01T23:23:41.031Z,99734.84
2022-11-01T23:26:08.260Z,99737.38
2022-11-01T23:28:37.317Z,99759.28
2022-11-01T23:31:05.548Z,99752.03
2022-11-01T23:33:40.758Z,99759.94
2022-11-01T23:36:37.593Z,99761.97
2022-11-01T23:39:13.823Z,99768.53
2022-11-01T23:41:56.590Z,99777.19
2022-11-01T23:44:37.732Z,99785.75
2022-11-01T23:47:35.625Z,99778.31
2022-11-01T23:50:21.267Z,99789.47
2022-11-01T23:53:00.549Z,99792.38
2022-11-01T23:55:32.582Z,99794.84
2022-11-01T23:58:03.573Z,99811.38
